Time;durP1;ratioP1;P1;durP2;ratioP2;P2;SDS_P1;SDS_P2;PMS_P1;PMS_P2;Temp;Humidity;BMP_temperature;BMP_pressure;BME280_temperature;BME280_humidity;BME280_pressure;Samples;Min_cycle;Max_cycle;Signal;HPM_P1;HPM_P2
2022/03/29 00:01:53;;;;;;;9.53;5.43;;;10.00;65.80;;;;;;5063796;28;20220;-71
2022/03/29 00:04:19;;;;;;;8.30;5.23;;;9.90;66.80;;;;;;5058141;28;20293;-69
2022/03/29 00:06:46;;;;;;;7.67;4.97;;;9.80;66.70;;;;;;5064191;28;20209;-70
2022/03/29 00:09:13;;;;;;;6.70;5.53;;;9.90;66.90;;;;;;5069589;28;20297;-69
2022/03/29 00:11:42;;;;;;;8.80;5.67;;;9.80;66.90;;;;;;5073225;28;20292;-69
2022/03/29 00:14:09;;;;;;;8.87;5.97;;;9.80;66.90;;;;;;5073636;28;20205;-69
2022/03/29 00:16:36;;;;;;;9.80;5.73;;;9.70;67.00;;;;;;5071246;28;20201;-70
2022/03/29 00:19:02;;;;;;;8.27;5.47;;;9.70;67.20;;;;;;5070450;28;20217;-70
2022/03/29 00:21:29;;;;;;;9.63;5.73;;;9.60;67.40;;;;;;5072107;28;20712;-69
2022/03/29 00:23:56;;;;;;;9.23;5.50;;;9.60;67.60;;;;;;5071774;28;20236;-68
2022/03/29 00:26:23;;;;;;;9.40;5.47;;;9.60;67.60;;;;;;5070362;28;20236;-68
2022/03/29 00:28:52;;;;;;;8.40;5.87;;;9.50;68.60;;;;;;5070330;28;20241;-69
2022/03/29 00:31:19;;;;;;;8.57;5.70;;;9.50;68.20;;;;;;5069137;28;20684;-70
2022/03/29 00:33:47;;;;;;;7.90;6.13;;;9.50;68.40;;;;;;5070888;28;20247;-69
2022/03/29 00:36:14;;;;;;;9.27;6.10;;;9.50;68.60;;;;;;5073215;28;20669;-69
2022/03/29 00:38:42;;;;;;;9.53;5.63;;;9.50;68.80;;;;;;5065854;28;20240;-69
2022/03/29 00:41:09;;;;;;;8.20;5.47;;;9.40;69.10;;;;;;5065386;28;20213;-70
2022/03/29 00:43:36;;;;;;;9.17;6.33;;;9.40;70.00;;;;;;5060531;28;20225;-70
2022/03/29 00:46:04;;;;;;;7.30;5.73;;;9.40;69.60;;;;;;5073497;28;20197;-70
2022/03/29 00:48:31;;;;;;;8.20;5.73;;;9.30;70.00;;;;;;5076624;28;20567;-69
2022/03/29 00:50:58;;;;;;;9.93;6.10;;;9.40;70.30;;;;;;5076042;28;20215;-70
2022/03/29 00:53:25;;;;;;;8.70;5.70;;;9.30;70.50;;;;;;5076208;28;20202;-70
2022/03/29 00:55:54;;;;;;;8.23;6.37;;;9.30;70.70;;;;;;5073363;28;20216;-70
2022/03/29 00:58:21;;;;;;;10.90;6.20;;;9.30;71.10;;;;;;5065539;28;20212;-70
2022/03/29 01:00:48;;;;;;;9.40;6.30;;;9.30;71.40;;;;;;5072723;28;20648;-71
2022/03/29 01:03:16;;;;;;;11.23;6.90;;;9.20;71.70;;;;;;5073724;28;20225;-70
2022/03/29 01:05:43;;;;;;;9.17;6.97;;;9.20;72.20;;;;;;5069825;28;20243;-70
2022/03/29 01:08:11;;;;;;;9.20;7.40;;;9.20;72.80;;;;;;5074026;28;20225;-70
2022/03/29 01:10:38;;;;;;;13.50;7.57;;;9.10;73.20;;;;;;5071657;28;20248;-70
2022/03/29 01:13:06;;;;;;;10.30;7.57;;;9.10;73.70;;;;;;5075278;28;20296;-70
2022/03/29 01:15:37;;;;;;;10.33;7.70;;;9.00;74.10;;;;;;5071952;28;20207;-71
2022/03/29 01:18:05;;;;;;;12.27;6.83;;;9.00;74.60;;;;;;5075360;28;20264;-72
2022/03/29 01:20:34;;;;;;;10.30;7.47;;;9.00;74.80;;;;;;5072885;28;20229;-71
2022/03/29 01:23:02;;;;;;;13.30;7.20;;;9.00;75.00;;;;;;5073970;28;20224;-72
2022/03/29 01:25:33;;;;;;;10.33;6.77;;;9.00;75.80;;;;;;5069356;28;20212;-71
2022/03/29 01:28:02;;;;;;;9.67;7.23;;;9.00;76.40;;;;;;5066110;28;20610;-71
2022/03/29 01:30:29;;;;;;;11.13;7.17;;;9.00;76.90;;;;;;5060814;28;20297;-70
2022/03/29 01:32:56;;;;;;;10.97;6.97;;;9.00;77.40;;;;;;5071288;28;20292;-71
2022/03/29 01:35:25;;;;;;;12.97;6.83;;;9.00;77.60;;;;;;5072611;28;20205;-71
2022/03/29 01:37:52;;;;;;;10.03;6.87;;;9.00;78.10;;;;;;5072185;28;20943;-71
2022/03/29 01:40:22;;;;;;;10.07;7.10;;;9.00;78.40;;;;;;5071832;28;20205;-70
2022/03/29 01:42:49;;;;;;;9.10;6.80;;;9.00;78.90;;;;;;5074130;28;20221;-71
2022/03/29 01:45:18;;;;;;;8.80;6.20;;;9.00;79.20;;;;;;5071857;28;20315;-70
2022/03/29 01:47:45;;;;;;;9.70;6.27;;;9.00;79.70;;;;;;5073760;28;20236;-72
2022/03/29 01:50:13;;;;;;;11.30;7.10;;;9.00;79.90;;;;;;5072425;28;20681;-70
2022/03/29 01:52:41;;;;;;;9.40;6.53;;;9.00;80.40;;;;;;5062697;28;20213;-71
2022/03/29 01:55:09;;;;;;;11.47;7.37;;;9.00;80.70;;;;;;5067305;28;20217;-71
2022/03/29 01:57:38;;;;;;;12.40;6.00;;;9.00;81.20;;;;;;5071469;28;20700;-71
2022/03/29 02:02:50;;;;;;;11.77;7.10;;;8.90;82.30;;;;;;5073542;28;20221;-73
2022/03/29 02:05:17;;;;;;;12.10;7.33;;;8.90;83.20;;;;;;5071186;28;20213;-71
2022/03/29 02:07:44;;;;;;;7.67;5.97;;;8.80;84.00;;;;;;5065381;28;20638;-72
2022/03/29 02:10:11;;;;;;;10.37;6.60;;;8.80;84.80;;;;;;5058262;28;20635;-72
2022/03/29 02:12:39;;;;;;;12.27;6.60;;;8.70;85.50;;;;;;5068182;28;20681;-71
2022/03/29 02:15:07;;;;;;;8.83;6.73;;;8.70;87.50;;;;;;5064271;28;20198;-71
2022/03/29 02:17:34;;;;;;;7.30;6.37;;;8.60;87.70;;;;;;5071898;28;20676;-71
2022/03/29 02:20:01;;;;;;;12.23;6.43;;;8.60;88.60;;;;;;5073336;28;20211;-70
2022/03/29 02:22:28;;;;;;;11.87;7.20;;;8.60;89.50;;;;;;5071864;28;20225;-72
2022/03/29 02:24:55;;;;;;;10.47;7.10;;;8.60;90.10;;;;;;5072566;28;20209;-71
2022/03/29 02:27:21;;;;;;;10.57;6.80;;;8.60;90.50;;;;;;5070137;28;20225;-71
2022/03/29 02:29:50;;;;;;;10.10;6.57;;;8.60;90.80;;;;;;5072523;28;20255;-71
2022/03/29 02:32:17;;;;;;;8.63;6.53;;;8.50;91.00;;;;;;5071164;28;20209;-72
2022/03/29 02:34:45;;;;;;;10.00;7.27;;;8.50;91.20;;;;;;5071002;28;20223;-72
2022/03/29 02:37:12;;;;;;;12.40;6.67;;;8.50;91.50;;;;;;5072804;28;20712;-71
2022/03/29 02:39:39;;;;;;;8.07;6.43;;;8.50;91.70;;;;;;5067021;28;20205;-72
2022/03/29 02:42:06;;;;;;;9.40;6.40;;;8.50;91.90;;;;;;5072654;28;20205;-71
2022/03/29 02:44:33;;;;;;;14.33;7.93;;;8.50;91.90;;;;;;5071484;28;20597;-71
2022/03/29 02:47:01;;;;;;;9.30;6.47;;;8.50;92.40;;;;;;5073586;28;20292;-72
2022/03/29 02:49:28;;;;;;;10.67;6.63;;;8.50;92.70;;;;;;5071298;28;20600;-71
2022/03/29 02:51:55;;;;;;;11.43;7.00;;;8.40;92.90;;;;;;5070497;28;20212;-71
2022/03/29 02:54:22;;;;;;;10.80;6.70;;;8.40;93.10;;;;;;5071874;28;20585;-71
2022/03/29 02:56:50;;;;;;;9.17;6.03;;;8.40;93.40;;;;;;5069335;28;20710;-71
2022/03/29 02:59:17;;;;;;;9.47;6.43;;;8.40;93.60;;;;;;5071728;28;20209;-71
2022/03/29 03:01:44;;;;;;;7.57;5.77;;;8.40;93.90;;;;;;5071777;28;20248;-71
2022/03/29 03:04:13;;;;;;;11.80;6.50;;;8.40;94.00;;;;;;5072906;28;20217;-71
2022/03/29 03:06:40;;;;;;;8.70;5.80;;;8.40;94.30;;;;;;5069779;28;20224;-71
2022/03/29 03:09:08;;;;;;;9.53;6.33;;;8.30;94.60;;;;;;5071197;28;20228;-71
2022/03/29 03:11:35;;;;;;;10.73;6.60;;;8.30;94.80;;;;;;5070406;28;20210;-71
2022/03/29 03:14:02;;;;;;;11.70;7.53;;;8.20;95.10;;;;;;5071897;28;20220;-71
2022/03/29 03:16:29;;;;;;;10.40;7.07;;;8.20;95.50;;;;;;5069410;28;20225;-71
2022/03/29 03:18:56;;;;;;;9.20;6.30;;;8.20;96.00;;;;;;5070799;28;20201;-71
2022/03/29 03:21:24;;;;;;;9.73;7.10;;;8.20;96.10;;;;;;5065103;28;20225;-71
2022/03/29 03:23:51;;;;;;;9.83;6.67;;;8.20;96.20;;;;;;5065327;28;20217;-71
2022/03/29 03:26:18;;;;;;;11.73;7.10;;;8.20;96.50;;;;;;5063183;28;20293;-71
2022/03/29 03:28:45;;;;;;;9.07;7.10;;;8.10;96.80;;;;;;5071224;28;20303;-71
2022/03/29 03:31:12;;;;;;;9.17;7.20;;;8.10;97.20;;;;;;5072669;28;20279;-71
2022/03/29 03:33:38;;;;;;;11.40;7.53;;;8.20;97.50;;;;;;5072504;28;20280;-71
2022/03/29 03:36:06;;;;;;;9.83;7.13;;;8.10;97.80;;;;;;5068076;28;20416;-71
2022/03/29 03:38:35;;;;;;;10.60;7.07;;;8.10;98.00;;;;;;5070385;28;20208;-71
2022/03/29 03:41:02;;;;;;;10.63;7.83;;;8.10;98.40;;;;;;5060627;28;20209;-71
2022/03/29 03:43:29;;;;;;;9.37;6.83;;;8.10;98.60;;;;;;5068343;28;20222;-71
2022/03/29 03:45:55;;;;;;;10.83;7.70;;;8.10;98.90;;;;;;5070718;28;20324;-71
2022/03/29 03:48:23;;;;;;;11.80;7.43;;;8.00;99.50;;;;;;5069748;28;20296;-71
2022/03/29 03:50:50;;;;;;;10.80;7.70;;;8.00;99.90;;;;;;5069862;28;20210;-71
2022/03/29 03:53:17;;;;;;;10.57;7.53;;;8.00;99.90;;;;;;5057545;28;20216;-71
2022/03/29 03:55:46;;;;;;;11.00;7.67;;;7.90;99.90;;;;;;5066902;28;20219;-71
2022/03/29 03:58:13;;;;;;;12.13;7.60;;;7.90;99.90;;;;;;5072049;28;20223;-71
2022/03/29 04:00:40;;;;;;;11.63;7.67;;;7.90;99.90;;;;;;5070457;28;20274;-71
2022/03/29 04:03:09;;;;;;;10.10;7.90;;;7.80;99.90;;;;;;5071846;28;20205;-71
2022/03/29 04:05:36;;;;;;;14.37;7.90;;;7.80;99.90;;;;;;5064879;28;20205;-72
2022/03/29 04:08:03;;;;;;;14.20;7.20;;;7.80;99.90;;;;;;5072253;28;20209;-71
2022/03/29 04:10:31;;;;;;;9.60;7.60;;;7.80;99.90;;;;;;5061053;28;20237;-71
2022/03/29 04:12:59;;;;;;;10.60;7.67;;;7.80;99.90;;;;;;5072006;28;20205;-72
2022/03/29 04:15:26;;;;;;;12.73;7.77;;;7.70;99.90;;;;;;5070402;28;20688;-71
2022/03/29 04:17:53;;;;;;;11.90;7.73;;;7.60;99.90;;;;;;5072994;28;20571;-71
2022/03/29 04:20:20;;;;;;;12.07;8.33;;;7.60;99.90;;;;;;5071710;28;20229;-72
2022/03/29 04:22:47;;;;;;;10.93;8.00;;;7.60;99.90;;;;;;5072402;28;20223;-72
2022/03/29 04:25:14;;;;;;;11.07;7.97;;;7.60;99.90;;;;;;5071530;28;20225;-71
2022/03/29 04:27:41;;;;;;;12.73;8.57;;;7.60;99.90;;;;;;5075836;28;20270;-71
2022/03/29 04:30:11;;;;;;;13.60;8.80;;;7.60;99.90;;;;;;5069906;28;20874;-71
2022/03/29 04:32:38;;;;;;;14.90;9.00;;;7.50;99.90;;;;;;5072827;28;20303;-71
2022/03/29 04:35:06;;;;;;;11.63;8.07;;;7.60;99.90;;;;;;5073357;28;20215;-71
2022/03/29 04:37:33;;;;;;;14.23;8.57;;;7.50;99.90;;;;;;5074624;28;20613;-70
2022/03/29 04:40:00;;;;;;;11.83;8.47;;;7.60;99.90;;;;;;5063795;28;20201;-71
2022/03/29 04:42:27;;;;;;;10.40;8.13;;;7.60;99.90;;;;;;5076038;28;20240;-71
2022/03/29 04:44:54;;;;;;;14.13;9.57;;;7.60;99.90;;;;;;5073984;28;20268;-71
2022/03/29 04:47:22;;;;;;;11.60;8.30;;;7.60;99.90;;;;;;5076113;28;20201;-71
2022/03/29 04:49:49;;;;;;;11.23;8.23;;;7.60;99.90;;;;;;5072526;28;20205;-71
2022/03/29 04:52:16;;;;;;;10.77;8.87;;;7.70;99.90;;;;;;5075770;28;20213;-71
2022/03/29 04:54:43;;;;;;;13.30;8.33;;;7.60;99.90;;;;;;5072811;28;20229;-71
2022/03/29 04:57:09;;;;;;;10.07;7.73;;;7.70;99.90;;;;;;5073442;28;20569;-72
2022/03/29 04:59:36;;;;;;;11.50;8.60;;;7.60;99.90;;;;;;5072354;28;20220;-71
2022/03/29 05:02:04;;;;;;;11.37;7.97;;;7.70;99.90;;;;;;5073285;28;20296;-71
2022/03/29 05:04:32;;;;;;;12.60;8.97;;;7.60;99.90;;;;;;5075190;28;20231;-71
2022/03/29 05:06:59;;;;;;;10.40;8.07;;;7.60;99.90;;;;;;5073098;28;20217;-72
2022/03/29 05:09:26;;;;;;;11.33;8.67;;;7.60;99.90;;;;;;5073473;28;20209;-71
2022/03/29 05:11:52;;;;;;;10.33;8.13;;;7.50;99.90;;;;;;5071679;28;20324;-71
2022/03/29 05:14:19;;;;;;;13.70;8.87;;;7.60;99.90;;;;;;5075275;28;20284;-71
2022/03/29 05:16:48;;;;;;;16.30;8.43;;;7.60;99.90;;;;;;5071744;28;20213;-71
2022/03/29 05:19:15;;;;;;;10.83;8.30;;;7.50;99.90;;;;;;5073400;28;20553;-71
2022/03/29 05:21:44;;;;;;;11.93;8.53;;;7.50;99.90;;;;;;5073083;28;20231;-72
2022/03/29 05:24:11;;;;;;;12.97;9.07;;;7.50;99.90;;;;;;5073648;28;20279;-71
2022/03/29 05:26:38;;;;;;;12.30;9.60;;;7.50;99.90;;;;;;5075095;28;20209;-71
2022/03/29 05:29:04;;;;;;;12.47;9.27;;;7.50;99.90;;;;;;5070475;28;20292;-71
2022/03/29 05:31:31;;;;;;;12.20;8.57;;;7.60;99.90;;;;;;5063593;28;20296;-71
2022/03/29 05:33:58;;;;;;;13.50;9.00;;;7.60;99.90;;;;;;5071003;28;20258;-71
2022/03/29 05:36:25;;;;;;;13.40;9.33;;;7.60;99.90;;;;;;5075090;28;20205;-72
2022/03/29 05:38:54;;;;;;;11.60;8.80;;;7.60;99.90;;;;;;5069735;28;20201;-72
2022/03/29 05:41:21;;;;;;;13.13;8.70;;;7.50;99.90;;;;;;5073077;28;20201;-71
2022/03/29 05:43:48;;;;;;;12.07;8.47;;;7.50;99.90;;;;;;5071074;28;20224;-72
2022/03/29 05:49:00;;;;;;;10.80;8.87;;;7.50;99.90;;;;;;5074911;28;20679;-73
2022/03/29 05:51:30;;;;;;;13.80;8.60;;;7.50;99.90;;;;;;5069703;28;20639;-72
2022/03/29 05:54:00;;;;;;;17.57;8.87;;;7.50;99.90;;;;;;5073023;28;20236;-71
2022/03/29 05:56:27;;;;;;;15.77;10.37;;;7.50;99.90;;;;;;5067079;28;20232;-72
2022/03/29 05:58:54;;;;;;;12.50;8.77;;;7.50;99.90;;;;;;5073736;28;20289;-71
2022/03/29 06:01:21;;;;;;;13.33;8.97;;;7.50;99.90;;;;;;5069167;28;20296;-71
2022/03/29 06:03:48;;;;;;;14.70;9.33;;;7.50;99.90;;;;;;5072823;28;20209;-71
2022/03/29 06:06:15;;;;;;;12.20;9.50;;;7.60;99.90;;;;;;5068210;28;20251;-71
2022/03/29 06:08:43;;;;;;;12.40;9.27;;;7.60;99.90;;;;;;5074223;28;20213;-72
2022/03/29 06:11:12;;;;;;;16.53;10.23;;;7.60;99.90;;;;;;5071933;28;20209;-71
2022/03/29 06:13:39;;;;;;;15.23;10.33;;;7.70;99.90;;;;;;5074619;28;20213;-72
2022/03/29 06:16:06;;;;;;;16.87;11.27;;;7.70;99.90;;;;;;5072068;28;20213;-72
2022/03/29 06:18:33;;;;;;;15.67;11.23;;;7.70;99.90;;;;;;5074698;28;20216;-72
2022/03/29 06:21:00;;;;;;;19.57;12.27;;;7.80;99.90;;;;;;5073012;28;20312;-71
2022/03/29 06:23:27;;;;;;;17.30;12.23;;;7.70;99.90;;;;;;5075156;28;20662;-72
2022/03/29 06:25:55;;;;;;;16.40;11.60;;;7.70;99.90;;;;;;5072455;28;20660;-73
2022/03/29 06:28:23;;;;;;;18.17;13.57;;;7.70;99.90;;;;;;5065732;28;20623;-72
2022/03/29 06:30:50;;;;;;;20.67;15.57;;;7.70;99.90;;;;;;5065536;28;20203;-73
2022/03/29 06:33:17;;;;;;;22.30;15.20;;;7.70;99.90;;;;;;5070390;28;20620;-72
2022/03/29 06:35:45;;;;;;;27.10;16.40;;;7.60;99.90;;;;;;5073341;28;20261;-72
2022/03/29 06:38:11;;;;;;;28.20;16.93;;;7.60;99.90;;;;;;5071821;28;20237;-72
2022/03/29 06:40:39;;;;;;;22.43;15.87;;;7.60;99.90;;;;;;5069062;28;20244;-72
2022/03/29 06:43:06;;;;;;;20.97;15.87;;;7.50;99.90;;;;;;5069596;28;20514;-72
2022/03/29 06:45:34;;;;;;;23.33;15.63;;;7.50;99.90;;;;;;5068426;28;20239;-72
2022/03/29 06:48:01;;;;;;;24.20;16.53;;;7.50;99.90;;;;;;5058672;28;20229;-73
2022/03/29 06:50:28;;;;;;;21.33;14.47;;;7.50;99.90;;;;;;5063653;28;20202;-72
2022/03/29 06:52:56;;;;;;;24.33;16.60;;;7.40;99.90;;;;;;5065215;28;20240;-71
2022/03/29 06:55:23;;;;;;;26.30;18.27;;;7.50;99.90;;;;;;5062581;28;20328;-72
2022/03/29 06:57:49;;;;;;;25.97;19.07;;;7.40;99.90;;;;;;5070336;28;20284;-71
2022/03/29 07:00:17;;;;;;;26.87;19.97;;;7.40;99.90;;;;;;5071384;28;20373;-72
2022/03/29 07:02:45;;;;;;;29.87;20.87;;;7.40;99.90;;;;;;5073279;28;20213;-71
2022/03/29 07:05:14;;;;;;;31.67;20.63;;;7.50;99.90;;;;;;5067832;28;20224;-72
2022/03/29 07:07:41;;;;;;;28.00;19.97;;;7.50;99.90;;;;;;5067957;28;20202;-73
2022/03/29 07:12:55;;;;;;;28.40;20.43;;;7.50;99.90;;;;;;5073771;28;20204;-73
2022/03/29 07:15:24;;;;;;;28.17;18.30;;;7.50;99.90;;;;;;5075684;28;20556;-74
2022/03/29 07:17:54;;;;;;;25.87;17.83;;;7.50;99.90;;;;;;5074711;28;20250;-72
2022/03/29 07:20:21;;;;;;;26.87;18.03;;;7.60;99.90;;;;;;5070496;28;20205;-72
2022/03/29 07:22:50;;;;;;;22.93;17.43;;;7.60;99.90;;;;;;5065662;28;20214;-75
2022/03/29 07:25:18;;;;;;;25.60;17.20;;;7.60;99.90;;;;;;5061558;28;20618;-73
2022/03/29 07:27:45;;;;;;;26.93;18.13;;;7.60;99.90;;;;;;5067578;28;20220;-72
2022/03/29 07:30:13;;;;;;;23.13;16.27;;;7.70;99.90;;;;;;5075779;28;20200;-70
2022/03/29 07:32:46;;;;;;;23.40;15.93;;;7.70;99.90;;;;;;5064950;28;20220;-70
2022/03/29 07:35:19;;;;;;;26.73;17.03;;;7.80;99.90;;;;;;5067677;28;20209;-71
2022/03/29 07:37:47;;;;;;;26.60;16.33;;;7.80;99.90;;;;;;5074161;28;20201;-68
2022/03/29 07:40:17;;;;;;;23.87;16.10;;;7.80;99.90;;;;;;5058174;28;20571;-71
2022/03/29 07:42:45;;;;;;;30.97;16.23;;;7.90;99.90;;;;;;5064216;28;20213;-69
2022/03/29 07:45:12;;;;;;;23.47;15.97;;;7.90;99.90;;;;;;5069891;28;20225;-68
2022/03/29 07:47:41;;;;;;;22.50;15.57;;;8.00;99.90;;;;;;5071927;28;20208;-67
2022/03/29 07:50:11;;;;;;;24.17;15.87;;;8.10;99.90;;;;;;5070832;28;20262;-70
2022/03/29 07:52:41;;;;;;;24.00;16.23;;;8.20;99.90;;;;;;5072920;28;20224;-69
2022/03/29 07:55:11;;;;;;;23.47;14.27;;;8.30;99.90;;;;;;5067771;28;20238;-72
2022/03/29 07:57:39;;;;;;;22.57;15.43;;;8.40;99.90;;;;;;5072398;28;20570;-72
2022/03/29 08:02:49;;;;;;;19.90;14.83;;;8.50;99.90;;;;;;5058489;28;20607;-73
2022/03/29 08:05:16;;;;;;;21.50;15.27;;;8.60;99.90;;;;;;5063814;28;20302;-71
2022/03/29 08:07:44;;;;;;;19.13;13.63;;;8.70;99.90;;;;;;5069457;28;20247;-73
2022/03/29 08:10:11;;;;;;;17.93;14.30;;;8.80;99.90;;;;;;5069790;28;20209;-71
2022/03/29 08:12:39;;;;;;;20.20;14.50;;;8.80;99.90;;;;;;5072782;28;20212;-71
2022/03/29 08:15:07;;;;;;;24.60;14.73;;;8.90;99.90;;;;;;5067414;28;20296;-72
2022/03/29 08:17:34;;;;;;;22.33;15.83;;;8.90;99.90;;;;;;5067309;28;20201;-72
2022/03/29 08:20:01;;;;;;;21.13;15.17;;;9.00;99.90;;;;;;5068744;28;20278;-70
2022/03/29 08:22:28;;;;;;;21.23;14.70;;;9.10;99.90;;;;;;5071884;28;20261;-73
2022/03/29 08:24:57;;;;;;;21.97;15.37;;;9.20;99.90;;;;;;5067161;28;20740;-72
2022/03/29 08:27:24;;;;;;;25.03;17.70;;;9.30;99.90;;;;;;5066621;28;20328;-70
2022/03/29 08:29:51;;;;;;;22.03;16.00;;;9.30;99.90;;;;;;5065575;28;20216;-71
2022/03/29 08:32:18;;;;;;;22.13;16.17;;;9.40;99.90;;;;;;5065516;28;20205;-71
2022/03/29 08:34:45;;;;;;;30.83;18.07;;;9.40;99.90;;;;;;5071658;28;20665;-71
2022/03/29 08:37:12;;;;;;;27.17;17.60;;;9.40;99.90;;;;;;5062977;28;20209;-72
2022/03/29 08:39:39;;;;;;;25.27;18.60;;;9.30;99.90;;;;;;5060362;28;20251;-71
2022/03/29 08:42:10;;;;;;;30.23;19.47;;;9.30;99.90;;;;;;5068608;28;20209;-72
2022/03/29 08:44:38;;;;;;;29.63;19.73;;;9.30;99.90;;;;;;5061356;28;20229;-70
2022/03/29 08:47:07;;;;;;;27.37;20.03;;;9.30;99.90;;;;;;5072342;28;20201;-70
2022/03/29 08:49:35;;;;;;;29.03;21.30;;;9.30;99.90;;;;;;5070232;28;20214;-70
2022/03/29 08:52:04;;;;;;;32.40;22.97;;;9.30;99.90;;;;;;5074766;28;20266;-70
2022/03/29 08:54:33;;;;;;;32.00;22.70;;;9.40;99.90;;;;;;5071066;28;20263;-70
2022/03/29 08:57:01;;;;;;;32.30;23.33;;;9.40;99.90;;;;;;5072195;28;20201;-69
2022/03/29 08:59:29;;;;;;;31.33;22.60;;;9.50;99.90;;;;;;5071035;28;20205;-70
2022/03/29 09:01:57;;;;;;;30.17;21.53;;;9.70;99.90;;;;;;5068303;28;20535;-70
2022/03/29 09:04:25;;;;;;;30.43;21.83;;;9.90;99.90;;;;;;5073146;28;20217;-70
2022/03/29 09:07:00;;;;;;;29.53;21.33;;;10.00;99.90;;;;;;5075225;28;20260;-70
2022/03/29 09:09:30;;;;;;;25.90;19.40;;;10.30;99.90;;;;;;5074297;28;20204;-71
2022/03/29 09:11:58;;;;;;;30.00;20.17;;;10.80;99.90;;;;;;5075153;28;20247;-70
2022/03/29 09:14:29;;;;;;;29.50;20.10;;;11.40;99.90;;;;;;5075183;28;20209;-69
2022/03/29 09:16:57;;;;;;;23.90;18.70;;;12.00;99.90;;;;;;5074210;28;20202;-72
2022/03/29 09:19:25;;;;;;;24.90;17.97;;;12.70;99.90;;;;;;5075633;28;20565;-72
2022/03/29 09:21:55;;;;;;;20.50;17.50;;;13.10;97.90;;;;;;5078422;28;20240;-71
2022/03/29 09:24:23;;;;;;;25.33;18.17;;;13.20;95.80;;;;;;5071482;28;20202;-72
2022/03/29 09:26:52;;;;;;;23.80;18.50;;;13.10;94.30;;;;;;5075552;28;20319;-72
2022/03/29 09:29:21;;;;;;;24.23;17.70;;;12.80;93.40;;;;;;5071433;28;20213;-71
2022/03/29 09:32:02;;;;;;;21.67;16.40;;;12.50;93.20;;;;;;5060004;28;20209;-71
2022/03/29 09:34:31;;;;;;;21.57;16.83;;;12.10;93.40;;;;;;5059654;28;20465;-73
2022/03/29 09:36:59;;;;;;;20.07;15.90;;;11.70;94.00;;;;;;5058648;28;20236;-73
2022/03/29 09:39:39;;;;;;;22.30;16.73;;;11.40;94.50;;;;;;5070372;28;20254;-72
2022/03/29 09:42:10;;;;;;;20.80;15.33;;;11.10;95.20;;;;;;5077129;28;20201;-73
2022/03/29 09:44:41;;;;;;;20.43;15.90;;;10.90;95.70;;;;;;5082174;28;20241;-72
2022/03/29 09:47:09;;;;;;;20.37;14.73;;;10.70;96.20;;;;;;5076206;28;20220;-71
2022/03/29 09:49:58;;;;;;;21.17;15.60;;;10.50;96.70;;;;;;5076618;28;20304;-71
2022/03/29 09:52:27;;;;;;;20.07;13.73;;;10.40;97.60;;;;;;5066384;28;20548;-73
2022/03/29 09:55:15;;;;;;;19.93;15.00;;;11.40;98.40;;;;;;5059766;28;20298;-71
2022/03/29 09:57:45;;;;;;;22.27;14.87;;;10.20;98.20;;;;;;5072681;28;20209;-70
2022/03/29 10:00:13;;;;;;;19.57;14.73;;;10.10;98.60;;;;;;5067843;28;20556;-71
2022/03/29 10:02:42;;;;;;;20.00;14.83;;;10.10;99.00;;;;;;5065936;28;20605;-71
2022/03/29 10:05:11;;;;;;;19.77;14.70;;;10.00;99.40;;;;;;5061705;28;20686;-72
2022/03/29 10:07:45;;;;;;;18.63;14.43;;;10.10;99.80;;;;;;5071364;28;20206;-71
2022/03/29 10:10:13;;;;;;;23.57;14.83;;;10.10;99.90;;;;;;5063999;28;20240;-71
2022/03/29 10:12:40;;;;;;;19.33;15.17;;;10.10;99.90;;;;;;5048681;28;20585;-72
2022/03/29 10:15:08;;;;;;;22.40;15.10;;;10.20;99.90;;;;;;5049838;28;20268;-71
2022/03/29 10:17:36;;;;;;;18.80;14.50;;;10.20;99.90;;;;;;5047958;28;20245;-71
2022/03/29 10:20:06;;;;;;;18.33;13.03;;;10.20;99.70;;;;;;5047410;28;20666;-71
2022/03/29 10:22:36;;;;;;;17.00;13.17;;;10.20;99.30;;;;;;5050775;28;20745;-71
2022/03/29 10:25:04;;;;;;;16.27;13.00;;;10.30;99.30;;;;;;5048274;28;20210;-71
2022/03/29 10:27:32;;;;;;;19.97;14.17;;;10.30;98.60;;;;;;5048154;28;20336;-71
2022/03/29 10:29:59;;;;;;;19.33;13.40;;;10.40;98.50;;;;;;5049485;28;20360;-70
2022/03/29 10:32:31;;;;;;;18.03;13.03;;;10.50;98.30;;;;;;5047234;28;20296;-70
2022/03/29 10:35:09;;;;;;;13.60;11.87;;;10.60;97.50;;;;;;5050026;28;20351;-72
2022/03/29 10:37:55;;;;;;;12.70;10.37;;;10.70;96.50;;;;;;5050287;28;20292;-69
2022/03/29 10:40:37;;;;;;;13.57;10.67;;;10.60;95.20;;;;;;5048323;28;20236;-70
2022/03/29 10:43:27;;;;;;;16.40;10.80;;;10.40;94.70;;;;;;5046165;28;20545;-70
2022/03/29 10:45:54;;;;;;;15.82;12.13;;;10.40;94.60;;;;;;5047045;28;20581;-71
2022/03/29 10:48:21;;;;;;;16.60;12.10;;;10.40;94.50;;;;;;5048672;28;20950;-70
2022/03/29 10:51:00;;;;;;;14.13;11.07;;;10.40;94.00;;;;;;5048888;28;20244;-71
2022/03/29 10:53:32;;;;;;;16.10;11.67;;;10.50;93.70;;;;;;5045799;28;20666;-70
2022/03/29 10:56:25;;;;;;;12.63;10.07;;;10.60;93.30;;;;;;5052668;28;20734;-71
2022/03/29 10:59:16;;;;;;;14.80;11.88;;;10.50;93.00;;;;;;5046871;28;20536;-70
2022/03/29 11:01:43;;;;;;;12.73;10.90;;;10.50;92.90;;;;;;5030627;28;20212;-70
2022/03/29 11:04:20;;;;;;;16.93;10.80;;;10.40;92.50;;;;;;5062357;28;20621;-70
2022/03/29 11:07:11;;;;;;;11.90;9.60;;;10.40;92.50;;;;;;5066308;28;20215;-71
2022/03/29 11:09:40;;;;;;;14.93;11.85;;;10.30;92.50;;;;;;5070273;28;20546;-70
2022/03/29 11:12:23;;;;;;;14.50;10.50;;;10.20;92.60;;;;;;5069289;28;20627;-71
2022/03/29 11:14:50;;;;;;;14.67;10.87;;;10.20;92.80;;;;;;5067999;28;20213;-67
2022/03/29 11:17:42;;;;;;;12.80;10.33;;;10.40;92.70;;;;;;5070688;28;20194;-69
2022/03/29 11:20:30;;;;;;;13.40;10.53;;;10.40;92.70;;;;;;5072241;28;20217;-68
2022/03/29 11:23:00;;;;;;;12.77;9.97;;;10.50;92.80;;;;;;5062487;28;20635;-69
2022/03/29 11:25:28;;;;;;;14.07;10.87;;;10.40;92.20;;;;;;5062096;28;20739;-70
2022/03/29 11:28:06;;;;;;;14.23;9.83;;;10.40;92.70;;;;;;5062496;28;20214;-70
2022/03/29 11:30:34;;;;;;;15.43;9.93;;;10.30;92.50;;;;;;5065301;28;20661;-69
2022/03/29 11:33:03;;;;;;;14.13;9.70;;;10.30;92.20;;;;;;5065913;28;20288;-71
2022/03/29 11:35:31;;;;;;;15.07;9.00;;;10.20;92.10;;;;;;5061859;28;20202;-68
2022/03/29 11:38:09;;;;;;;12.47;8.87;;;10.20;92.10;;;;;;5063676;28;20706;-70
2022/03/29 11:40:37;;;;;;;12.83;9.07;;;10.10;92.10;;;;;;5061183;28;20240;-71
2022/03/29 11:43:05;;;;;;;17.33;10.63;;;10.10;92.50;;;;;;5066650;28;20241;-73
2022/03/29 11:45:40;;;;;;;15.13;9.30;;;10.20;92.90;;;;;;5068910;28;20245;-71
2022/03/29 11:48:11;;;;;;;15.83;10.30;;;10.30;92.90;;;;;;5071917;28;20614;-72
2022/03/29 11:50:42;;;;;;;14.33;9.90;;;10.20;92.60;;;;;;5063696;28;20220;-70
2022/03/29 11:53:20;;;;;;;16.07;9.90;;;10.20;93.00;;;;;;5070758;28;20201;-71
2022/03/29 11:55:59;;;;;;;14.87;9.07;;;10.20;93.20;;;;;;5070080;28;20236;-70
2022/03/29 11:58:29;;;;;;;15.20;9.53;;;10.30;92.90;;;;;;5070672;28;20627;-70
2022/03/29 12:01:04;;;;;;;13.40;9.17;;;10.20;92.70;;;;;;5064673;28;20280;-70
2022/03/29 12:03:36;;;;;;;11.87;9.00;;;10.20;92.70;;;;;;5069935;28;20205;-72
2022/03/29 12:06:14;;;;;;;11.33;8.80;;;10.20;93.00;;;;;;5072923;28;20320;-70
2022/03/29 12:08:50;;;;;;;14.53;9.43;;;10.20;93.30;;;;;;5069347;28;20204;-73
2022/03/29 12:11:21;;;;;;;13.97;9.43;;;10.20;93.00;;;;;;5060889;28;20236;-69
2022/03/29 12:13:59;;;;;;;17.97;9.57;;;10.20;92.60;;;;;;5070999;28;20216;-71
2022/03/29 12:16:27;;;;;;;16.10;8.27;;;10.10;92.10;;;;;;5072490;28;20567;-70
2022/03/29 12:18:55;;;;;;;12.90;7.77;;;10.10;91.90;;;;;;5072139;28;20233;-68
2022/03/29 12:21:24;;;;;;;12.93;8.97;;;10.10;91.90;;;;;;5069034;28;20312;-69
2022/03/29 12:23:59;;;;;;;11.40;8.50;;;10.00;91.30;;;;;;5064783;28;20241;-72
2022/03/29 12:26:31;;;;;;;12.50;7.83;;;10.10;91.30;;;;;;5066854;28;20291;-70
2022/03/29 12:28:59;;;;;;;13.90;8.00;;;10.10;91.20;;;;;;5068929;28;20194;-69
2022/03/29 12:31:28;;;;;;;14.73;8.47;;;10.10;91.00;;;;;;5069767;28;20216;-69
2022/03/29 12:33:56;;;;;;;11.60;7.67;;;10.10;90.60;;;;;;5062785;28;20646;-69
2022/03/29 12:36:24;;;;;;;12.73;7.83;;;10.10;90.60;;;;;;5057102;28;20822;-69
2022/03/29 12:38:52;;;;;;;10.37;8.07;;;10.00;90.50;;;;;;5060161;28;20210;-68
2022/03/29 12:41:35;;;;;;;10.73;7.30;;;9.90;91.20;;;;;;5059032;28;20206;-69
2022/03/29 12:44:03;;;;;;;12.27;8.03;;;9.90;91.60;;;;;;5064419;28;20251;-69
2022/03/29 12:46:31;;;;;;;13.60;8.00;;;9.90;91.70;;;;;;5067956;28;20308;-69
2022/03/29 12:48:58;;;;;;;13.27;9.53;;;9.90;91.70;;;;;;5064064;28;20201;-69
2022/03/29 12:51:31;;;;;;;12.93;8.50;;;9.90;92.00;;;;;;5065114;28;20201;-69
2022/03/29 12:54:01;;;;;;;15.10;9.00;;;9.90;92.20;;;;;;5070078;28;20547;-69
2022/03/29 12:56:30;;;;;;;12.70;8.43;;;10.00;91.70;;;;;;5063782;28;20614;-69
2022/03/29 12:58:58;;;;;;;15.93;10.20;;;10.00;91.60;;;;;;5069877;28;20201;-68
2022/03/29 13:01:30;;;;;;;15.00;9.53;;;10.00;91.60;;;;;;5074881;28;20240;-70